sensor_id;sensor_type;location;lat;lon;timestamp;P1;durP1;ratioP1;P2;durP2;ratioP2
25721;SDS011;13578;53.450;15.496;2023-10-13T00:02:05;8.13;;;3.47;;
25721;SDS011;13578;53.450;15.496;2023-10-13T00:05:06;10.00;;;4.15;;
25721;SDS011;13578;53.450;15.496;2023-10-13T00:08:08;3.65;;;2.67;;
25721;SDS011;13578;53.450;15.496;2023-10-13T00:11:13;19.52;;;4.05;;
25721;SDS011;13578;53.450;15.496;2023-10-13T00:14:13;12.40;;;4.10;;
25721;SDS011;13578;53.450;15.496;2023-10-13T00:17:17;6.53;;;3.85;;
25721;SDS011;13578;53.450;15.496;2023-10-13T00:20:24;16.88;;;4.68;;
25721;SDS011;13578;53.450;15.496;2023-10-13T00:23:38;18.45;;;5.82;;
25721;SDS011;13578;53.450;15.496;2023-10-13T00:26:49;5.70;;;2.90;;
25721;SDS011;13578;53.450;15.496;2023-10-13T00:29:50;13.30;;;3.75;;
25721;SDS011;13578;53.450;15.496;2023-10-13T00:33:04;5.65;;;3.13;;
25721;SDS011;13578;53.450;15.496;2023-10-13T00:36:05;6.97;;;3.70;;
25721;SDS011;13578;53.450;15.496;2023-10-13T00:39:08;6.15;;;3.22;;
25721;SDS011;13578;53.450;15.496;2023-10-13T00:42:08;5.68;;;3.38;;
25721;SDS011;13578;53.450;15.496;2023-10-13T00:45:17;5.22;;;3.35;;
25721;SDS011;13578;53.450;15.496;2023-10-13T00:48:18;6.63;;;3.30;;
25721;SDS011;13578;53.450;15.496;2023-10-13T00:51:19;4.57;;;2.70;;
25721;SDS011;13578;53.450;15.496;2023-10-13T00:54:34;7.07;;;2.92;;
25721;SDS011;13578;53.450;15.496;2023-10-13T00:57:37;8.15;;;3.58;;
25721;SDS011;13578;53.450;15.496;2023-10-13T01:00:40;13.18;;;3.00;;
25721;SDS011;13578;53.450;15.496;2023-10-13T01:03:51;5.28;;;3.38;;
25721;SDS011;13578;53.450;15.496;2023-10-13T01:06:55;7.80;;;2.88;;
25721;SDS011;13578;53.450;15.496;2023-10-13T01:09:56;9.13;;;3.45;;
25721;SDS011;13578;53.450;15.496;2023-10-13T01:12:56;5.28;;;2.90;;
25721;SDS011;13578;53.450;15.496;2023-10-13T01:15:59;7.60;;;3.30;;
25721;SDS011;13578;53.450;15.496;2023-10-13T01:19:01;4.13;;;2.90;;
25721;SDS011;13578;53.450;15.496;2023-10-13T01:22:05;6.85;;;3.70;;
25721;SDS011;13578;53.450;15.496;2023-10-13T01:25:06;5.68;;;2.90;;
25721;SDS011;13578;53.450;15.496;2023-10-13T01:28:13;16.17;;;2.50;;
25721;SDS011;13578;53.450;15.496;2023-10-13T01:31:16;3.05;;;2.60;;
25721;SDS011;13578;53.450;15.496;2023-10-13T01:34:25;11.20;;;3.08;;
25721;SDS011;13578;53.450;15.496;2023-10-13T01:37:25;6.65;;;2.90;;
25721;SDS011;13578;53.450;15.496;2023-10-13T01:40:26;4.13;;;2.92;;
25721;SDS011;13578;53.450;15.496;2023-10-13T01:43:29;3.65;;;2.78;;
25721;SDS011;13578;53.450;15.496;2023-10-13T01:46:29;4.35;;;2.80;;
25721;SDS011;13578;53.450;15.496;2023-10-13T01:49:30;5.03;;;3.45;;
25721;SDS011;13578;53.450;15.496;2023-10-13T01:52:34;9.15;;;3.03;;
25721;SDS011;13578;53.450;15.496;2023-10-13T01:55:34;7.57;;;3.42;;
25721;SDS011;13578;53.450;15.496;2023-10-13T01:58:40;6.37;;;3.57;;
25721;SDS011;13578;53.450;15.496;2023-10-13T02:01:47;5.57;;;2.75;;
25721;SDS011;13578;53.450;15.496;2023-10-13T02:04:51;3.45;;;2.65;;
25721;SDS011;13578;53.450;15.496;2023-10-13T02:08:01;8.65;;;3.42;;
25721;SDS011;13578;53.450;15.496;2023-10-13T02:11:02;7.43;;;2.80;;
25721;SDS011;13578;53.450;15.496;2023-10-13T02:14:07;4.72;;;3.05;;
25721;SDS011;13578;53.450;15.496;2023-10-13T02:17:11;6.65;;;3.15;;
25721;SDS011;13578;53.450;15.496;2023-10-13T02:20:16;6.40;;;3.08;;
25721;SDS011;13578;53.450;15.496;2023-10-13T02:23:17;8.40;;;3.38;;
25721;SDS011;13578;53.450;15.496;2023-10-13T02:26:17;9.63;;;3.50;;
25721;SDS011;13578;53.450;15.496;2023-10-13T02:29:30;6.38;;;3.30;;
25721;SDS011;13578;53.450;15.496;2023-10-13T02:32:31;3.67;;;2.95;;
25721;SDS011;13578;53.450;15.496;2023-10-13T02:35:33;6.53;;;2.70;;
25721;SDS011;13578;53.450;15.496;2023-10-13T02:38:35;7.45;;;3.05;;
25721;SDS011;13578;53.450;15.496;2023-10-13T02:41:38;6.15;;;3.40;;
25721;SDS011;13578;53.450;15.496;2023-10-13T02:44:40;6.90;;;3.40;;
25721;SDS011;13578;53.450;15.496;2023-10-13T02:47:44;3.75;;;2.97;;
25721;SDS011;13578;53.450;15.496;2023-10-13T02:50:44;5.80;;;2.95;;
25721;SDS011;13578;53.450;15.496;2023-10-13T02:53:55;4.25;;;3.00;;
25721;SDS011;13578;53.450;15.496;2023-10-13T02:57:02;4.95;;;2.83;;
25721;SDS011;13578;53.450;15.496;2023-10-13T03:00:06;7.13;;;3.53;;
25721;SDS011;13578;53.450;15.496;2023-10-13T03:03:15;7.25;;;2.85;;
25721;SDS011;13578;53.450;15.496;2023-10-13T03:06:18;11.35;;;3.17;;
25721;SDS011;13578;53.450;15.496;2023-10-13T03:09:22;6.00;;;2.63;;
25721;SDS011;13578;53.450;15.496;2023-10-13T03:12:23;6.78;;;3.08;;
25721;SDS011;13578;53.450;15.496;2023-10-13T03:15:33;7.18;;;3.38;;
25721;SDS011;13578;53.450;15.496;2023-10-13T03:18:35;4.07;;;2.70;;
25721;SDS011;13578;53.450;15.496;2023-10-13T03:21:36;7.75;;;2.92;;
25721;SDS011;13578;53.450;15.496;2023-10-13T03:24:37;7.85;;;2.90;;
25721;SDS011;13578;53.450;15.496;2023-10-13T03:27:47;9.77;;;2.85;;
25721;SDS011;13578;53.450;15.496;2023-10-13T03:30:48;10.10;;;2.78;;
25721;SDS011;13578;53.450;15.496;2023-10-13T03:33:52;7.60;;;3.00;;
25721;SDS011;13578;53.450;15.496;2023-10-13T03:37:00;14.65;;;2.50;;
25721;SDS011;13578;53.450;15.496;2023-10-13T03:40:11;5.78;;;2.50;;
25721;SDS011;13578;53.450;15.496;2023-10-13T03:43:21;8.10;;;2.17;;
25721;SDS011;13578;53.450;15.496;2023-10-13T03:46:24;5.95;;;2.80;;
25721;SDS011;13578;53.450;15.496;2023-10-13T03:49:26;6.03;;;2.90;;
25721;SDS011;13578;53.450;15.496;2023-10-13T03:52:29;10.27;;;2.75;;
25721;SDS011;13578;53.450;15.496;2023-10-13T03:55:35;5.10;;;2.30;;
25721;SDS011;13578;53.450;15.496;2023-10-13T03:58:37;8.57;;;2.67;;
25721;SDS011;13578;53.450;15.496;2023-10-13T04:01:39;8.98;;;2.63;;
25721;SDS011;13578;53.450;15.496;2023-10-13T04:04:45;11.27;;;2.78;;
25721;SDS011;13578;53.450;15.496;2023-10-13T04:07:49;8.70;;;2.65;;
25721;SDS011;13578;53.450;15.496;2023-10-13T04:11:08;4.82;;;2.05;;
25721;SDS011;13578;53.450;15.496;2023-10-13T04:14:28;5.68;;;2.10;;
25721;SDS011;13578;53.450;15.496;2023-10-13T04:17:51;5.47;;;2.03;;
25721;SDS011;13578;53.450;15.496;2023-10-13T04:20:52;6.72;;;2.28;;
25721;SDS011;13578;53.450;15.496;2023-10-13T04:24:07;18.05;;;2.60;;
25721;SDS011;13578;53.450;15.496;2023-10-13T04:27:18;6.18;;;2.15;;
25721;SDS011;13578;53.450;15.496;2023-10-13T04:30:41;8.05;;;2.58;;
25721;SDS011;13578;53.450;15.496;2023-10-13T04:34:00;11.52;;;3.90;;
25721;SDS011;13578;53.450;15.496;2023-10-13T04:37:02;9.30;;;2.38;;
25721;SDS011;13578;53.450;15.496;2023-10-13T04:40:22;9.00;;;1.85;;
25721;SDS011;13578;53.450;15.496;2023-10-13T04:43:26;8.48;;;2.92;;
25721;SDS011;13578;53.450;15.496;2023-10-13T04:46:55;8.32;;;2.13;;
25721;SDS011;13578;53.450;15.496;2023-10-13T04:50:01;6.90;;;2.00;;
25721;SDS011;13578;53.450;15.496;2023-10-13T04:53:22;8.73;;;2.30;;
25721;SDS011;13578;53.450;15.496;2023-10-13T04:56:55;7.88;;;2.45;;
25721;SDS011;13578;53.450;15.496;2023-10-13T05:00:14;4.55;;;1.80;;
25721;SDS011;13578;53.450;15.496;2023-10-13T05:03:17;10.02;;;2.67;;
25721;SDS011;13578;53.450;15.496;2023-10-13T05:06:38;8.32;;;1.92;;
25721;SDS011;13578;53.450;15.496;2023-10-13T05:09:44;5.05;;;2.20;;
25721;SDS011;13578;53.450;15.496;2023-10-13T05:13:03;9.00;;;1.80;;
25721;SDS011;13578;53.450;15.496;2023-10-13T05:16:23;3.88;;;1.60;;
25721;SDS011;13578;53.450;15.496;2023-10-13T05:19:42;7.55;;;1.75;;
25721;SDS011;13578;53.450;15.496;2023-10-13T05:23:01;8.55;;;2.17;;
25721;SDS011;13578;53.450;15.496;2023-10-13T05:26:21;7.32;;;2.63;;
25721;SDS011;13578;53.450;15.496;2023-10-13T05:29:40;5.07;;;1.95;;
25721;SDS011;13578;53.450;15.496;2023-10-13T05:33:00;7.65;;;1.63;;
25721;SDS011;13578;53.450;15.496;2023-10-13T05:36:19;5.68;;;1.90;;
25721;SDS011;13578;53.450;15.496;2023-10-13T05:39:38;6.63;;;1.63;;
25721;SDS011;13578;53.450;15.496;2023-10-13T05:42:57;8.98;;;1.73;;
25721;SDS011;13578;53.450;15.496;2023-10-13T05:46:16;6.88;;;2.60;;
25721;SDS011;13578;53.450;15.496;2023-10-13T05:49:25;18.65;;;2.70;;
25721;SDS011;13578;53.450;15.496;2023-10-13T05:55:59;5.13;;;2.15;;
25721;SDS011;13578;53.450;15.496;2023-10-13T05:59:19;11.90;;;2.55;;
25721;SDS011;13578;53.450;15.496;2023-10-13T06:02:38;10.88;;;2.70;;
25721;SDS011;13578;53.450;15.496;2023-10-13T06:05:57;6.38;;;2.30;;
25721;SDS011;13578;53.450;15.496;2023-10-13T06:09:16;5.35;;;2.10;;
25721;SDS011;13578;53.450;15.496;2023-10-13T06:12:35;8.13;;;3.25;;
25721;SDS011;13578;53.450;15.496;2023-10-13T06:15:54;8.70;;;2.42;;
25721;SDS011;13578;53.450;15.496;2023-10-13T06:19:13;10.98;;;3.00;;
25721;SDS011;13578;53.450;15.496;2023-10-13T06:22:32;9.98;;;3.28;;
25721;SDS011;13578;53.450;15.496;2023-10-13T06:25:52;10.43;;;2.72;;
25721;SDS011;13578;53.450;15.496;2023-10-13T06:29:12;7.43;;;3.00;;
25721;SDS011;13578;53.450;15.496;2023-10-13T06:32:20;8.70;;;2.92;;
25721;SDS011;13578;53.450;15.496;2023-10-13T06:38:26;8.05;;;2.67;;
25721;SDS011;13578;53.450;15.496;2023-10-13T06:41:31;8.60;;;3.08;;
25721;SDS011;13578;53.450;15.496;2023-10-13T06:44:31;10.95;;;2.55;;
25721;SDS011;13578;53.450;15.496;2023-10-13T06:47:32;8.10;;;3.38;;
25721;SDS011;13578;53.450;15.496;2023-10-13T06:50:33;15.45;;;3.05;;
25721;SDS011;13578;53.450;15.496;2023-10-13T06:53:39;9.90;;;2.85;;
25721;SDS011;13578;53.450;15.496;2023-10-13T06:56:46;8.15;;;3.45;;
25721;SDS011;13578;53.450;15.496;2023-10-13T06:59:51;13.40;;;4.28;;
25721;SDS011;13578;53.450;15.496;2023-10-13T07:02:53;16.48;;;5.35;;
25721;SDS011;13578;53.450;15.496;2023-10-13T07:06:06;13.68;;;4.20;;
25721;SDS011;13578;53.450;15.496;2023-10-13T07:12:36;17.42;;;6.78;;
25721;SDS011;13578;53.450;15.496;2023-10-13T07:15:37;11.75;;;4.90;;
25721;SDS011;13578;53.450;15.496;2023-10-13T07:18:44;18.27;;;6.20;;
25721;SDS011;13578;53.450;15.496;2023-10-13T07:21:59;15.60;;;6.00;;
25721;SDS011;13578;53.450;15.496;2023-10-13T07:25:19;23.70;;;6.90;;
25721;SDS011;13578;53.450;15.496;2023-10-13T07:28:24;23.05;;;6.47;;
25721;SDS011;13578;53.450;15.496;2023-10-13T07:31:24;18.88;;;5.93;;
25721;SDS011;13578;53.450;15.496;2023-10-13T07:34:27;23.15;;;8.15;;
25721;SDS011;13578;53.450;15.496;2023-10-13T07:37:31;22.60;;;6.95;;
25721;SDS011;13578;53.450;15.496;2023-10-13T07:40:32;19.17;;;6.68;;
25721;SDS011;13578;53.450;15.496;2023-10-13T07:43:36;23.63;;;7.00;;
25721;SDS011;13578;53.450;15.496;2023-10-13T07:46:40;19.00;;;6.80;;
25721;SDS011;13578;53.450;15.496;2023-10-13T07:49:40;19.60;;;7.20;;
25721;SDS011;13578;53.450;15.496;2023-10-13T07:52:41;23.00;;;7.75;;
25721;SDS011;13578;53.450;15.496;2023-10-13T07:55:58;26.13;;;8.13;;
25721;SDS011;13578;53.450;15.496;2023-10-13T07:59:03;25.63;;;7.95;;
25721;SDS011;13578;53.450;15.496;2023-10-13T08:02:06;22.95;;;8.57;;
25721;SDS011;13578;53.450;15.496;2023-10-13T08:05:12;27.35;;;8.82;;
25721;SDS011;13578;53.450;15.496;2023-10-13T08:08:15;21.95;;;9.02;;
25721;SDS011;13578;53.450;15.496;2023-10-13T08:11:16;23.88;;;10.05;;
25721;SDS011;13578;53.450;15.496;2023-10-13T08:14:23;21.35;;;8.90;;
25721;SDS011;13578;53.450;15.496;2023-10-13T08:17:29;25.88;;;9.05;;
25721;SDS011;13578;53.450;15.496;2023-10-13T08:20:31;23.17;;;9.32;;
25721;SDS011;13578;53.450;15.496;2023-10-13T08:23:38;18.35;;;8.55;;
25721;SDS011;13578;53.450;15.496;2023-10-13T08:26:59;22.42;;;10.38;;
25721;SDS011;13578;53.450;15.496;2023-10-13T08:33:29;29.88;;;10.88;;
25721;SDS011;13578;53.450;15.496;2023-10-13T08:36:32;31.48;;;11.52;;
25721;SDS011;13578;53.450;15.496;2023-10-13T08:39:33;30.45;;;11.68;;
25721;SDS011;13578;53.450;15.496;2023-10-13T08:42:58;35.65;;;13.20;;
25721;SDS011;13578;53.450;15.496;2023-10-13T08:46:03;32.38;;;13.55;;
25721;SDS011;13578;53.450;15.496;2023-10-13T08:49:06;35.42;;;13.40;;
25721;SDS011;13578;53.450;15.496;2023-10-13T08:52:14;30.67;;;12.93;;
25721;SDS011;13578;53.450;15.496;2023-10-13T08:55:36;33.70;;;14.57;;
25721;SDS011;13578;53.450;15.496;2023-10-13T08:58:49;30.73;;;12.18;;
25721;SDS011;13578;53.450;15.496;2023-10-13T09:01:52;30.95;;;12.82;;
25721;SDS011;13578;53.450;15.496;2023-10-13T09:05:15;43.25;;;13.60;;
25721;SDS011;13578;53.450;15.496;2023-10-13T09:08:35;36.70;;;12.05;;
25721;SDS011;13578;53.450;15.496;2023-10-13T09:11:36;32.63;;;12.73;;
25721;SDS011;13578;53.450;15.496;2023-10-13T09:15:04;38.30;;;13.95;;
25721;SDS011;13578;53.450;15.496;2023-10-13T09:18:23;37.42;;;14.45;;
25721;SDS011;13578;53.450;15.496;2023-10-13T09:21:43;32.28;;;13.40;;
25721;SDS011;13578;53.450;15.496;2023-10-13T09:24:43;30.38;;;12.57;;
25721;SDS011;13578;53.450;15.496;2023-10-13T09:27:50;36.97;;;13.82;;
25721;SDS011;13578;53.450;15.496;2023-10-13T09:30:54;32.00;;;12.40;;
25721;SDS011;13578;53.450;15.496;2023-10-13T09:33:58;39.45;;;14.57;;
25721;SDS011;13578;53.450;15.496;2023-10-13T09:37:02;33.88;;;13.02;;
25721;SDS011;13578;53.450;15.496;2023-10-13T09:40:09;30.55;;;13.75;;
25721;SDS011;13578;53.450;15.496;2023-10-13T09:43:25;34.88;;;13.95;;
25721;SDS011;13578;53.450;15.496;2023-10-13T09:46:27;35.17;;;14.00;;
25721;SDS011;13578;53.450;15.496;2023-10-13T09:49:28;29.70;;;12.40;;
25721;SDS011;13578;53.450;15.496;2023-10-13T09:52:45;34.13;;;13.95;;
25721;SDS011;13578;53.450;15.496;2023-10-13T09:55:58;35.00;;;14.05;;
25721;SDS011;13578;53.450;15.496;2023-10-13T09:59:14;31.95;;;13.75;;
25721;SDS011;13578;53.450;15.496;2023-10-13T10:02:19;30.33;;;12.73;;
25721;SDS011;13578;53.450;15.496;2023-10-13T10:05:25;29.67;;;12.95;;
25721;SDS011;13578;53.450;15.496;2023-10-13T10:08:26;36.92;;;14.50;;
25721;SDS011;13578;53.450;15.496;2023-10-13T10:18:02;25.20;;;12.25;;
25721;SDS011;13578;53.450;15.496;2023-10-13T10:21:04;25.77;;;12.00;;
25721;SDS011;13578;53.450;15.496;2023-10-13T10:24:15;28.67;;;13.23;;
25721;SDS011;13578;53.450;15.496;2023-10-13T10:27:27;28.92;;;12.60;;
25721;SDS011;13578;53.450;15.496;2023-10-13T10:30:32;24.92;;;12.15;;
25721;SDS011;13578;53.450;15.496;2023-10-13T10:33:35;28.67;;;12.23;;
25721;SDS011;13578;53.450;15.496;2023-10-13T10:36:37;25.83;;;12.60;;
25721;SDS011;13578;53.450;15.496;2023-10-13T10:39:38;25.27;;;11.10;;
25721;SDS011;13578;53.450;15.496;2023-10-13T10:42:50;29.30;;;12.80;;
25721;SDS011;13578;53.450;15.496;2023-10-13T10:45:52;28.10;;;12.68;;
25721;SDS011;13578;53.450;15.496;2023-10-13T10:49:03;22.75;;;11.57;;
25721;SDS011;13578;53.450;15.496;2023-10-13T10:52:05;26.35;;;11.93;;
25721;SDS011;13578;53.450;15.496;2023-10-13T10:55:19;26.08;;;11.55;;
25721;SDS011;13578;53.450;15.496;2023-10-13T10:58:21;22.05;;;11.70;;
25721;SDS011;13578;53.450;15.496;2023-10-13T11:01:30;19.88;;;11.50;;
25721;SDS011;13578;53.450;15.496;2023-10-13T11:04:39;22.35;;;11.07;;
25721;SDS011;13578;53.450;15.496;2023-10-13T11:07:51;22.45;;;11.15;;
25721;SDS011;13578;53.450;15.496;2023-10-13T11:10:52;20.60;;;10.43;;
25721;SDS011;13578;53.450;15.496;2023-10-13T11:13:53;21.55;;;11.07;;
25721;SDS011;13578;53.450;15.496;2023-10-13T11:17:20;19.83;;;9.65;;
25721;SDS011;13578;53.450;15.496;2023-10-13T11:20:26;18.50;;;9.93;;
25721;SDS011;13578;53.450;15.496;2023-10-13T11:23:33;26.85;;;11.63;;
25721;SDS011;13578;53.450;15.496;2023-10-13T11:26:36;14.75;;;9.48;;
25721;SDS011;13578;53.450;15.496;2023-10-13T11:29:49;21.98;;;8.98;;
25721;SDS011;13578;53.450;15.496;2023-10-13T11:36:06;18.77;;;8.75;;
25721;SDS011;13578;53.450;15.496;2023-10-13T11:39:15;21.80;;;8.90;;
25721;SDS011;13578;53.450;15.496;2023-10-13T11:42:23;16.85;;;8.77;;
25721;SDS011;13578;53.450;15.496;2023-10-13T11:45:27;16.98;;;8.65;;
25721;SDS011;13578;53.450;15.496;2023-10-13T11:48:31;13.20;;;7.75;;
25721;SDS011;13578;53.450;15.496;2023-10-13T11:51:36;10.88;;;7.55;;
25721;SDS011;13578;53.450;15.496;2023-10-13T11:54:38;18.15;;;7.90;;
25721;SDS011;13578;53.450;15.496;2023-10-13T11:57:41;17.27;;;7.70;;
25721;SDS011;13578;53.450;15.496;2023-10-13T12:00:43;12.35;;;7.45;;
25721;SDS011;13578;53.450;15.496;2023-10-13T12:04:22;18.00;;;7.95;;
25721;SDS011;13578;53.450;15.496;2023-10-13T12:07:41;13.18;;;7.32;;
25721;SDS011;13578;53.450;15.496;2023-10-13T12:10:51;12.82;;;7.22;;
25721;SDS011;13578;53.450;15.496;2023-10-13T12:14:00;15.85;;;7.28;;
25721;SDS011;13578;53.450;15.496;2023-10-13T12:30:15;12.82;;;6.25;;
25721;SDS011;13578;53.450;15.496;2023-10-13T12:33:22;8.60;;;5.95;;
25721;SDS011;13578;53.450;15.496;2023-10-13T12:36:25;9.85;;;6.38;;
25721;SDS011;13578;53.450;15.496;2023-10-13T12:39:31;15.40;;;6.97;;
25721;SDS011;13578;53.450;15.496;2023-10-13T12:42:50;12.73;;;6.50;;
25721;SDS011;13578;53.450;15.496;2023-10-13T12:46:09;15.18;;;7.30;;
25721;SDS011;13578;53.450;15.496;2023-10-13T12:49:28;12.52;;;6.50;;
25721;SDS011;13578;53.450;15.496;2023-10-13T12:52:41;12.55;;;6.78;;
25721;SDS011;13578;53.450;15.496;2023-10-13T12:55:45;12.70;;;6.20;;
25721;SDS011;13578;53.450;15.496;2023-10-13T12:58:46;8.52;;;5.68;;
25721;SDS011;13578;53.450;15.496;2023-10-13T13:01:52;12.98;;;6.30;;
25721;SDS011;13578;53.450;15.496;2023-10-13T13:04:54;10.68;;;5.97;;
25721;SDS011;13578;53.450;15.496;2023-10-13T13:08:05;9.65;;;5.60;;
25721;SDS011;13578;53.450;15.496;2023-10-13T13:11:06;9.57;;;5.22;;
25721;SDS011;13578;53.450;15.496;2023-10-13T13:14:07;13.98;;;5.40;;
25721;SDS011;13578;53.450;15.496;2023-10-13T13:17:08;15.20;;;6.30;;
25721;SDS011;13578;53.450;15.496;2023-10-13T13:20:09;10.23;;;6.10;;
25721;SDS011;13578;53.450;15.496;2023-10-13T13:23:26;14.70;;;5.55;;
25721;SDS011;13578;53.450;15.496;2023-10-13T13:26:26;17.73;;;5.55;;
25721;SDS011;13578;53.450;15.496;2023-10-13T13:29:27;12.30;;;5.50;;
25721;SDS011;13578;53.450;15.496;2023-10-13T13:32:27;7.20;;;5.30;;
25721;SDS011;13578;53.450;15.496;2023-10-13T13:35:28;12.55;;;5.53;;
25721;SDS011;13578;53.450;15.496;2023-10-13T13:38:34;13.35;;;5.60;;
25721;SDS011;13578;53.450;15.496;2023-10-13T13:41:35;14.07;;;4.88;;
25721;SDS011;13578;53.450;15.496;2023-10-13T13:44:36;6.82;;;4.57;;
25721;SDS011;13578;53.450;15.496;2023-10-13T13:47:36;15.82;;;5.45;;
25721;SDS011;13578;53.450;15.496;2023-10-13T13:50:37;12.82;;;5.70;;
25721;SDS011;13578;53.450;15.496;2023-10-13T13:53:41;11.38;;;5.93;;
25721;SDS011;13578;53.450;15.496;2023-10-13T13:56:46;12.55;;;5.22;;
25721;SDS011;13578;53.450;15.496;2023-10-13T13:59:47;10.63;;;5.50;;
25721;SDS011;13578;53.450;15.496;2023-10-13T14:02:47;9.60;;;5.13;;
25721;SDS011;13578;53.450;15.496;2023-10-13T14:05:48;10.13;;;4.80;;
25721;SDS011;13578;53.450;15.496;2023-10-13T14:08:51;9.90;;;5.28;;
25721;SDS011;13578;53.450;15.496;2023-10-13T14:11:54;13.52;;;6.40;;
25721;SDS011;13578;53.450;15.496;2023-10-13T14:15:13;10.90;;;5.18;;
25721;SDS011;13578;53.450;15.496;2023-10-13T14:18:23;16.65;;;7.18;;
25721;SDS011;13578;53.450;15.496;2023-10-13T14:21:30;8.52;;;4.57;;
25721;SDS011;13578;53.450;15.496;2023-10-13T14:24:34;11.40;;;4.03;;
25721;SDS011;13578;53.450;15.496;2023-10-13T14:27:35;8.18;;;4.50;;
25721;SDS011;13578;53.450;15.496;2023-10-13T14:30:36;21.02;;;10.85;;
25721;SDS011;13578;53.450;15.496;2023-10-13T14:33:36;15.07;;;5.43;;
25721;SDS011;13578;53.450;15.496;2023-10-13T14:36:37;9.32;;;4.35;;
25721;SDS011;13578;53.450;15.496;2023-10-13T14:39:38;9.75;;;5.05;;
25721;SDS011;13578;53.450;15.496;2023-10-13T14:42:41;7.97;;;4.70;;
25721;SDS011;13578;53.450;15.496;2023-10-13T14:45:42;17.25;;;6.25;;
25721;SDS011;13578;53.450;15.496;2023-10-13T14:48:43;13.98;;;5.57;;
25721;SDS011;13578;53.450;15.496;2023-10-13T14:51:44;5.88;;;4.05;;
25721;SDS011;13578;53.450;15.496;2023-10-13T14:54:44;16.52;;;10.32;;
25721;SDS011;13578;53.450;15.496;2023-10-13T14:57:46;13.05;;;5.60;;
25721;SDS011;13578;53.450;15.496;2023-10-13T15:00:52;12.02;;;5.28;;
25721;SDS011;13578;53.450;15.496;2023-10-13T15:03:54;11.50;;;4.63;;
25721;SDS011;13578;53.450;15.496;2023-10-13T15:06:55;11.98;;;6.43;;
25721;SDS011;13578;53.450;15.496;2023-10-13T15:09:56;21.92;;;7.68;;
25721;SDS011;13578;53.450;15.496;2023-10-13T15:12:57;14.30;;;6.38;;
25721;SDS011;13578;53.450;15.496;2023-10-13T15:15:59;7.25;;;4.25;;
25721;SDS011;13578;53.450;15.496;2023-10-13T15:19:01;8.98;;;4.05;;
25721;SDS011;13578;53.450;15.496;2023-10-13T15:22:04;9.73;;;4.47;;
25721;SDS011;13578;53.450;15.496;2023-10-13T15:25:13;10.82;;;3.67;;
25721;SDS011;13578;53.450;15.496;2023-10-13T15:28:20;7.05;;;3.42;;
25721;SDS011;13578;53.450;15.496;2023-10-13T15:31:21;8.63;;;3.80;;
25721;SDS011;13578;53.450;15.496;2023-10-13T15:34:25;5.68;;;3.42;;
25721;SDS011;13578;53.450;15.496;2023-10-13T15:37:27;12.57;;;3.95;;
25721;SDS011;13578;53.450;15.496;2023-10-13T15:40:27;7.82;;;3.90;;
25721;SDS011;13578;53.450;15.496;2023-10-13T15:43:28;10.68;;;3.50;;
25721;SDS011;13578;53.450;15.496;2023-10-13T15:46:29;7.28;;;3.47;;
25721;SDS011;13578;53.450;15.496;2023-10-13T15:49:30;16.60;;;4.30;;
25721;SDS011;13578;53.450;15.496;2023-10-13T15:52:33;12.95;;;3.83;;
25721;SDS011;13578;53.450;15.496;2023-10-13T15:55:34;9.25;;;3.75;;
25721;SDS011;13578;53.450;15.496;2023-10-13T15:58:39;16.13;;;4.13;;
25721;SDS011;13578;53.450;15.496;2023-10-13T16:01:49;14.40;;;4.70;;
25721;SDS011;13578;53.450;15.496;2023-10-13T16:04:54;11.93;;;3.75;;
25721;SDS011;13578;53.450;15.496;2023-10-13T16:07:59;13.90;;;4.67;;
25721;SDS011;13578;53.450;15.496;2023-10-13T16:11:05;13.55;;;4.55;;
25721;SDS011;13578;53.450;15.496;2023-10-13T16:14:13;7.70;;;3.83;;
25721;SDS011;13578;53.450;15.496;2023-10-13T16:17:17;10.20;;;3.17;;
25721;SDS011;13578;53.450;15.496;2023-10-13T16:20:23;11.40;;;3.60;;
25721;SDS011;13578;53.450;15.496;2023-10-13T16:23:24;13.15;;;3.28;;
25721;SDS011;13578;53.450;15.496;2023-10-13T16:26:25;7.13;;;2.72;;
25721;SDS011;13578;53.450;15.496;2023-10-13T16:29:26;5.82;;;2.88;;
25721;SDS011;13578;53.450;15.496;2023-10-13T16:32:30;16.70;;;4.47;;
25721;SDS011;13578;53.450;15.496;2023-10-13T16:35:32;9.82;;;3.90;;
25721;SDS011;13578;53.450;15.496;2023-10-13T16:38:36;8.98;;;3.88;;
25721;SDS011;13578;53.450;15.496;2023-10-13T16:41:37;16.42;;;4.18;;
25721;SDS011;13578;53.450;15.496;2023-10-13T16:44:38;10.05;;;3.92;;
25721;SDS011;13578;53.450;15.496;2023-10-13T16:47:39;10.63;;;3.00;;
25721;SDS011;13578;53.450;15.496;2023-10-13T16:50:43;12.88;;;3.58;;
25721;SDS011;13578;53.450;15.496;2023-10-13T16:53:44;13.95;;;3.95;;
25721;SDS011;13578;53.450;15.496;2023-10-13T16:56:49;13.27;;;4.25;;
25721;SDS011;13578;53.450;15.496;2023-10-13T16:59:53;14.77;;;4.10;;
25721;SDS011;13578;53.450;15.496;2023-10-13T17:02:54;15.02;;;3.60;;
25721;SDS011;13578;53.450;15.496;2023-10-13T17:05:55;9.88;;;3.85;;
25721;SDS011;13578;53.450;15.496;2023-10-13T17:08:57;10.80;;;3.83;;
25721;SDS011;13578;53.450;15.496;2023-10-13T17:11:58;9.55;;;4.07;;
25721;SDS011;13578;53.450;15.496;2023-10-13T17:14:58;14.20;;;3.67;;
25721;SDS011;13578;53.450;15.496;2023-10-13T17:18:00;9.25;;;4.07;;
25721;SDS011;13578;53.450;15.496;2023-10-13T17:21:13;11.60;;;3.33;;
25721;SDS011;13578;53.450;15.496;2023-10-13T17:24:28;10.77;;;3.20;;
25721;SDS011;13578;53.450;15.496;2023-10-13T17:27:29;10.20;;;3.13;;
25721;SDS011;13578;53.450;15.496;2023-10-13T17:30:32;11.55;;;3.95;;
25721;SDS011;13578;53.450;15.496;2023-10-13T17:33:36;13.52;;;3.45;;
25721;SDS011;13578;53.450;15.496;2023-10-13T17:36:39;11.63;;;4.15;;
25721;SDS011;13578;53.450;15.496;2023-10-13T17:39:40;14.40;;;4.45;;
25721;SDS011;13578;53.450;15.496;2023-10-13T17:42:41;9.05;;;3.25;;
25721;SDS011;13578;53.450;15.496;2023-10-13T17:45:43;13.35;;;3.85;;
25721;SDS011;13578;53.450;15.496;2023-10-13T17:48:44;9.25;;;3.50;;
25721;SDS011;13578;53.450;15.496;2023-10-13T17:51:45;7.18;;;3.13;;
25721;SDS011;13578;53.450;15.496;2023-10-13T17:54:45;9.63;;;3.38;;
25721;SDS011;13578;53.450;15.496;2023-10-13T17:57:46;13.77;;;4.10;;
25721;SDS011;13578;53.450;15.496;2023-10-13T18:00:48;15.75;;;4.35;;
25721;SDS011;13578;53.450;15.496;2023-10-13T18:03:50;16.33;;;3.55;;
25721;SDS011;13578;53.450;15.496;2023-10-13T18:06:52;16.45;;;3.90;;
25721;SDS011;13578;53.450;15.496;2023-10-13T18:09:53;10.02;;;2.95;;
25721;SDS011;13578;53.450;15.496;2023-10-13T18:12:55;6.68;;;2.95;;
25721;SDS011;13578;53.450;15.496;2023-10-13T18:15:56;9.00;;;3.13;;
25721;SDS011;13578;53.450;15.496;2023-10-13T18:18:57;23.48;;;3.17;;
25721;SDS011;13578;53.450;15.496;2023-10-13T18:21:58;13.27;;;3.47;;
25721;SDS011;13578;53.450;15.496;2023-10-13T18:24:59;10.50;;;3.65;;
25721;SDS011;13578;53.450;15.496;2023-10-13T18:28:00;11.93;;;3.00;;
25721;SDS011;13578;53.450;15.496;2023-10-13T18:31:03;6.25;;;2.30;;
25721;SDS011;13578;53.450;15.496;2023-10-13T18:34:04;9.27;;;2.72;;
25721;SDS011;13578;53.450;15.496;2023-10-13T18:37:05;9.65;;;2.80;;
25721;SDS011;13578;53.450;15.496;2023-10-13T18:40:10;13.10;;;3.20;;
25721;SDS011;13578;53.450;15.496;2023-10-13T18:43:12;14.18;;;4.05;;
25721;SDS011;13578;53.450;15.496;2023-10-13T18:46:13;30.58;;;4.38;;
25721;SDS011;13578;53.450;15.496;2023-10-13T18:49:14;7.20;;;2.95;;
25721;SDS011;13578;53.450;15.496;2023-10-13T18:52:15;16.50;;;3.20;;